»·PEaware :: N5205X KSBA-KBUR

N5205X :: KSBA-KBUR

FLIGHT INFORMATION

Flight Status: Arrived
Operator: Privately registered:
United States
More flights under this callsign
Pilot: Martin B. (29991)
Aircraft: CIRRUS SR-22 TURBO
(S22T)
More flights by this aircraft type
Origin: KSBA Santa Barbara Mun
United States
Destination: KBUR Bob Hope-Burbank
United States
More flights between these airports :: More routes between these airports
Route: FIM
File this flight plan on PilotEdge
Remarks:
Altitude:
(Current/Filed)
7,500ft
Speed:
(Current/Filed)
170kts
Departed: 09-Jan-21 09:11 AM
Arrived: 09-Jan-21 09:42 AM
Distance/Time
Traveled:
75nm/0:31
Distance/Time
To Go:
Arrived

Flight Plot

Page will automatically refresh every two minutes.


Map Options




Map Legend


Flown Route
Filed Route
Departure Airport
Arrival Airport
Navaid (VOR, NDB)
Fix

Horizontal Profiles

Position Reports

Time Latitude Longitude Heading Altitude Ground
Speed
09-Jan-21 08:49 34.422660 -119.835592 340 13ft 0kts
09-Jan-21 08:50 34.422660 -119.835592 340 13ft 0kts
09-Jan-21 08:51 34.422660 -119.835592 340 13ft 0kts
09-Jan-21 08:52 34.422660 -119.835592 340 13ft 0kts
09-Jan-21 08:53 34.422660 -119.835592 340 13ft 0kts
09-Jan-21 08:55 34.422660 -119.835592 340 13ft 0kts
09-Jan-21 08:56 34.422660 -119.835592 340 13ft 0kts
09-Jan-21 08:57 34.422660 -119.835592 340 13ft 0kts
09-Jan-21 08:58 34.422660 -119.835592 340 13ft 0kts
09-Jan-21 08:59 34.422660 -119.835592 340 13ft 0kts
09-Jan-21 09:00 34.422660 -119.835592 340 13ft 0kts
09-Jan-21 09:01 34.422793 -119.836326 282 13ft 12kts
09-Jan-21 09:02 34.425857 -119.838040 351 11ft 15kts
09-Jan-21 09:03 34.426777 -119.834765 90 11ft 11kts
09-Jan-21 09:04 34.427110 -119.834805 331 11ft 0kts
09-Jan-21 09:05 34.427110 -119.834805 331 11ft 0kts
09-Jan-21 09:06 34.427110 -119.834805 331 11ft 0kts
09-Jan-21 09:07 34.427110 -119.834805 331 11ft 0kts
09-Jan-21 09:08 34.427110 -119.834805 331 11ft 0kts
09-Jan-21 09:09 34.427110 -119.834805 331 11ft 0kts
09-Jan-21 09:09 34.427165 -119.834846 326 11ft 8kts
09-Jan-21 09:11 34.426477 -119.855411 265 710ft 98kts
09-Jan-21 09:12 34.421984 -119.891609 265 1525ft 136kts
09-Jan-21 09:12 34.417512 -119.931333 267 1497ft 143kts
09-Jan-21 09:13 34.439713 -119.931328 88 2113ft 134kts
09-Jan-21 09:14 34.430220 -119.887128 96 3262ft 133kts
09-Jan-21 09:15 34.424285 -119.842167 92 4349ft 132kts
09-Jan-21 09:16 34.420201 -119.796810 89 5392ft 134kts
09-Jan-21 09:17 34.416706 -119.748741 89 6260ft 163kts
09-Jan-21 09:18 34.412638 -119.690125 89 7241ft 173kts
09-Jan-21 09:19 34.408229 -119.626046 89 7498ft 201kts
09-Jan-21 09:20 34.403825 -119.557393 89 7492ft 201kts
09-Jan-21 09:21 34.399299 -119.488870 89 7493ft 201kts
09-Jan-21 09:22 34.394815 -119.423990 87 7492ft 179kts
09-Jan-21 09:23 34.390676 -119.360684 87 7493ft 188kts
09-Jan-21 09:24 34.386082 -119.296601 88 7464ft 184kts
09-Jan-21 09:25 34.381497 -119.233988 89 7462ft 183kts
09-Jan-21 09:26 34.377052 -119.171657 89 7462ft 180kts
09-Jan-21 09:27 34.372547 -119.110183 90 7461ft 182kts
09-Jan-21 09:28 34.368095 -119.047974 90 7461ft 184kts
09-Jan-21 09:29 34.363581 -118.985026 90 7461ft 185kts
09-Jan-21 09:30 34.359081 -118.921516 87 7468ft 184kts
09-Jan-21 09:31 34.350298 -118.858858 105 7484ft 189kts
09-Jan-21 09:32 34.330756 -118.799146 107 7482ft 190kts
09-Jan-21 09:33 34.310819 -118.739450 108 7482ft 191kts
09-Jan-21 09:34 34.290771 -118.679494 108 7482ft 192kts
09-Jan-21 09:35 34.270635 -118.619208 108 7483ft 194kts
09-Jan-21 09:36 34.249529 -118.558311 115 6707ft 206kts
09-Jan-21 09:37 34.220281 -118.505900 123 5041ft 184kts
09-Jan-21 09:38 34.201757 -118.451471 108 2710ft 167kts
09-Jan-21 09:39 34.196772 -118.404870 86 1836ft 134kts
09-Jan-21 09:40 34.197825 -118.368279 86 775ft 90kts
09-Jan-21 09:41 34.197520 -118.356479 142 712ft 13kts
09-Jan-21 09:42 34.196940 -118.356511 241 710ft 0kts

Navigation Log

Ident Type
Flight plan parsing failed, navigation log unavailable